createdAt,value
2019-03-31T00:01:51.287Z,76.15
2019-03-31T00:06:54.811Z,76.42
2019-03-31T00:11:58.305Z,76.57
2019-03-31T00:17:01.729Z,77.05
2019-03-31T00:22:05.434Z,76.67
2019-03-31T00:27:08.849Z,77.31
2019-03-31T00:32:12.265Z,77.36
2019-03-31T00:37:15.735Z,77.84
2019-03-31T00:42:19.170Z,78.08
2019-03-31T00:47:22.614Z,78.56
2019-03-31T00:52:26.059Z,79.13
2019-03-31T00:57:29.555Z,80.09
2019-03-31T01:02:33.819Z,79.58
2019-03-31T01:07:37.308Z,79.17
2019-03-31T01:12:41.100Z,79.89
2019-03-31T01:17:44.515Z,80.40
2019-03-31T01:22:48.927Z,78.76
2019-03-31T01:27:53.109Z,79.13
2019-03-31T01:32:56.797Z,81.56
2019-03-31T01:38:00.305Z,81.25
2019-03-31T01:43:03.739Z,81.49
2019-03-31T01:48:07.256Z,81.91
2019-03-31T01:53:10.752Z,82.47
2019-03-31T01:58:14.427Z,82.23
2019-03-31T02:03:17.944Z,83.55
2019-03-31T02:08:21.848Z,82.67
2019-03-31T02:13:25.330Z,82.30
2019-03-31T02:18:28.834Z,82.58
2019-03-31T02:23:32.331Z,83.30
2019-03-31T02:28:35.773Z,84.58
2019-03-31T02:33:39.197Z,84.48
2019-03-31T02:38:42.657Z,85.96
2019-03-31T02:43:46.188Z,86.20
2019-03-31T02:48:49.613Z,85.60
2019-03-31T02:53:53.115Z,85.02
2019-03-31T02:58:58.603Z,84.27
2019-03-31T03:04:07.737Z,84.73
2019-03-31T03:09:09.419Z,82.60
2019-03-31T03:14:14.890Z,81.20
2019-03-31T03:19:18.332Z,81.18
2019-03-31T03:24:21.760Z,80.92
2019-03-31T03:29:25.219Z,81.73
2019-03-31T03:34:28.653Z,80.39
2019-03-31T03:39:32.101Z,80.55
2019-03-31T03:44:35.555Z,81.76
2019-03-31T03:49:38.990Z,80.77
2019-03-31T03:54:42.433Z,79.31
2019-03-31T03:59:45.871Z,79.35
2019-03-31T04:04:49.287Z,81.49
2019-03-31T04:09:52.706Z,80.63
2019-03-31T04:14:56.132Z,80.94
2019-03-31T04:19:59.570Z,80.45
2019-03-31T04:25:03.070Z,80.92
2019-03-31T04:30:06.679Z,80.52
2019-03-31T04:35:10.200Z,80.74
2019-03-31T04:40:13.839Z,80.41
2019-03-31T04:45:17.656Z,80.97
2019-03-31T04:50:21.098Z,80.87
2019-03-31T04:55:24.533Z,80.68
2019-03-31T05:00:28.680Z,80.69
2019-03-31T05:05:32.122Z,81.17
2019-03-31T05:10:35.549Z,81.33
2019-03-31T05:15:38.981Z,81.71
2019-03-31T05:20:42.479Z,81.58
2019-03-31T05:25:45.921Z,82.67
2019-03-31T05:30:49.375Z,83.98
2019-03-31T05:35:52.813Z,84.00
2019-03-31T05:40:56.252Z,85.69
2019-03-31T05:45:59.705Z,84.79
2019-03-31T05:51:03.155Z,85.09
2019-03-31T05:56:06.659Z,88.34
2019-03-31T06:01:10.134Z,88.82
2019-03-31T06:06:13.575Z,88.16
2019-03-31T06:11:17.034Z,88.46
2019-03-31T06:16:20.484Z,90.04
2019-03-31T06:21:23.917Z,89.51
2019-03-31T06:26:27.354Z,90.02
2019-03-31T06:31:30.780Z,88.82
2019-03-31T06:36:34.217Z,87.33
2019-03-31T06:41:37.673Z,86.16
2019-03-31T06:46:41.095Z,88.07
2019-03-31T06:51:44.536Z,86.47
2019-03-31T06:56:47.963Z,86.97
2019-03-31T07:01:51.413Z,86.99
2019-03-31T07:06:54.862Z,86.54
2019-03-31T07:11:58.352Z,86.66
2019-03-31T07:17:01.821Z,86.46
2019-03-31T07:22:05.252Z,87.03
2019-03-31T07:27:08.704Z,87.69
2019-03-31T07:32:12.128Z,86.12
2019-03-31T07:37:15.562Z,84.71
2019-03-31T07:42:19.071Z,82.70
2019-03-31T07:47:22.518Z,82.08
2019-03-31T07:52:25.957Z,81.48
2019-03-31T07:57:29.400Z,80.64
2019-03-31T08:02:32.921Z,79.45
2019-03-31T08:07:36.415Z,80.42
2019-03-31T08:12:39.842Z,78.01
2019-03-31T08:17:43.261Z,78.94
2019-03-31T08:22:46.703Z,76.39
2019-03-31T08:27:50.149Z,74.99
2019-03-31T08:32:53.592Z,74.75
2019-03-31T08:37:57.087Z,72.45
2019-03-31T08:43:00.508Z,70.25
2019-03-31T08:48:03.961Z,71.86
2019-03-31T08:53:07.409Z,71.02
2019-03-31T08:58:10.921Z,69.40
2019-03-31T09:03:14.375Z,70.20
2019-03-31T09:08:17.828Z,70.14
2019-03-31T09:13:21.278Z,69.62
2019-03-31T09:18:24.698Z,68.88
2019-03-31T09:23:28.150Z,68.75
2019-03-31T09:28:31.594Z,68.85
2019-03-31T09:33:35.021Z,69.12
2019-03-31T09:38:38.455Z,69.73
2019-03-31T09:43:41.916Z,70.27
2019-03-31T09:48:45.360Z,69.48
2019-03-31T09:53:48.814Z,68.86
2019-03-31T09:58:52.313Z,68.13
2019-03-31T10:03:55.734Z,68.69
2019-03-31T10:08:59.761Z,67.38
2019-03-31T10:14:03.260Z,66.26
2019-03-31T10:19:06.713Z,66.97
2019-03-31T10:24:10.167Z,67.57
2019-03-31T10:29:13.684Z,66.80
2019-03-31T10:34:17.159Z,65.88
2019-03-31T10:39:20.678Z,65.08
2019-03-31T10:44:24.123Z,64.17
2019-03-31T10:49:27.610Z,62.27
2019-03-31T10:54:31.110Z,61.95
2019-03-31T10:59:34.562Z,63.79
2019-03-31T11:04:38.025Z,64.97
2019-03-31T11:09:41.546Z,66.51
2019-03-31T11:14:44.971Z,66.02
2019-03-31T11:19:48.390Z,66.07
2019-03-31T11:24:51.846Z,64.11
2019-03-31T11:29:55.296Z,63.86
2019-03-31T11:34:59.231Z,63.50
2019-03-31T11:40:05.678Z,62.66
2019-03-31T11:45:11.420Z,60.61
2019-03-31T11:50:16.047Z,57.98
2019-03-31T11:55:19.495Z,57.00
2019-03-31T12:00:27.955Z,58.56
2019-03-31T12:05:31.417Z,58.88
2019-03-31T12:10:34.943Z,59.39
2019-03-31T12:15:38.412Z,58.60
2019-03-31T12:20:41.857Z,59.67
2019-03-31T12:25:45.617Z,59.99
2019-03-31T12:30:49.159Z,58.90
2019-03-31T12:35:52.960Z,58.82
2019-03-31T12:40:56.438Z,58.62
2019-03-31T12:46:00.588Z,57.13
2019-03-31T12:51:04.003Z,57.60
2019-03-31T12:56:07.461Z,55.25
2019-03-31T13:01:10.949Z,54.63
2019-03-31T13:06:14.425Z,55.67
2019-03-31T13:11:18.265Z,56.00
2019-03-31T13:16:21.731Z,55.19
2019-03-31T13:21:25.357Z,52.54
2019-03-31T13:26:29.132Z,51.49
2019-03-31T13:31:32.839Z,49.78
2019-03-31T13:36:37.162Z,50.86
2019-03-31T13:41:40.712Z,50.40
2019-03-31T13:46:44.241Z,49.48
2019-03-31T13:51:47.698Z,48.63
2019-03-31T13:56:52.185Z,48.54
2019-03-31T14:01:56.211Z,48.04
2019-03-31T14:07:04.210Z,47.95
2019-03-31T14:12:06.016Z,46.76
2019-03-31T14:17:09.574Z,48.13
2019-03-31T14:22:13.022Z,47.64
2019-03-31T14:27:17.344Z,46.54
2019-03-31T14:32:20.773Z,45.10
2019-03-31T14:37:24.450Z,44.87
2019-03-31T14:42:27.867Z,45.43
2019-03-31T14:47:32.175Z,45.53
2019-03-31T14:52:35.733Z,45.29
2019-03-31T14:57:39.333Z,45.90
2019-03-31T15:02:42.801Z,45.53
2019-03-31T15:07:46.656Z,45.65
2019-03-31T15:12:50.120Z,47.29
2019-03-31T15:17:53.667Z,46.19
2019-03-31T15:22:57.491Z,46.45
2019-03-31T15:28:00.938Z,46.80
2019-03-31T15:33:04.382Z,46.48
2019-03-31T15:38:07.808Z,46.12
2019-03-31T15:43:11.236Z,45.94
2019-03-31T15:48:14.663Z,45.34
2019-03-31T15:53:18.117Z,45.70
2019-03-31T15:58:21.563Z,44.92
2019-03-31T16:03:24.979Z,44.77
2019-03-31T16:08:28.419Z,45.08
2019-03-31T16:13:31.857Z,45.57
2019-03-31T16:18:35.308Z,46.38
2019-03-31T16:23:38.751Z,46.22
2019-03-31T16:28:42.175Z,46.64
2019-03-31T16:33:45.605Z,47.57
2019-03-31T16:38:49.059Z,47.43
2019-03-31T16:43:52.606Z,48.01
2019-03-31T16:48:56.956Z,47.46
2019-03-31T16:54:01.301Z,48.23
2019-03-31T16:59:04.884Z,49.37
2019-03-31T17:04:08.830Z,48.32
2019-03-31T17:09:12.442Z,48.18
2019-03-31T17:14:15.900Z,49.45
2019-03-31T17:19:19.344Z,48.35
2019-03-31T17:24:22.830Z,48.48
2019-03-31T17:29:26.276Z,49.07
2019-03-31T17:34:29.780Z,50.56
2019-03-31T17:39:33.270Z,50.75
2019-03-31T17:44:36.757Z,50.83
2019-03-31T17:49:40.197Z,51.56
2019-03-31T17:54:43.649Z,51.94
2019-03-31T17:59:47.093Z,51.96
2019-03-31T18:04:52.857Z,51.29
2019-03-31T18:09:56.595Z,52.45
2019-03-31T18:15:00.031Z,52.04
2019-03-31T18:20:04.708Z,52.75
2019-03-31T18:25:08.508Z,53.84
2019-03-31T18:30:16.895Z,54.06
2019-03-31T18:35:20.885Z,54.29
2019-03-31T18:40:34.771Z,54.25
2019-03-31T18:45:29.494Z,55.05
2019-03-31T18:50:32.948Z,56.36
2019-03-31T18:55:40.639Z,55.50
2019-03-31T19:01:00.803Z,56.88
2019-03-31T19:06:20.887Z,56.33
2019-03-31T19:11:31.666Z,57.53
2019-03-31T19:16:45.445Z,58.18
2019-03-31T19:21:51.289Z,59.37
2019-03-31T19:27:12.578Z,60.35
2019-03-31T19:32:17.665Z,60.86
2019-03-31T19:37:29.070Z,59.78
2019-03-31T19:42:36.736Z,60.09
2019-03-31T19:47:50.894Z,60.37
2019-03-31T19:52:58.799Z,59.88
2019-03-31T19:58:06.564Z,59.05
2019-03-31T20:03:17.254Z,59.94
2019-03-31T20:08:38.675Z,61.16
2019-03-31T20:13:52.614Z,60.44
2019-03-31T20:19:03.326Z,58.51
2019-03-31T20:24:11.069Z,59.90
2019-03-31T20:29:16.168Z,61.23
2019-03-31T20:34:27.098Z,60.86
2019-03-31T20:39:34.995Z,59.91
2019-03-31T20:44:38.490Z,60.34
2019-03-31T20:49:41.939Z,60.68
2019-03-31T20:54:45.464Z,61.97
2019-03-31T20:59:49.117Z,61.79
2019-03-31T21:04:52.699Z,61.17
2019-03-31T21:09:56.115Z,62.23
2019-03-31T21:14:59.799Z,60.46
2019-03-31T21:20:03.611Z,62.68
2019-03-31T21:25:07.058Z,62.38
2019-03-31T21:30:11.204Z,62.15
2019-03-31T21:35:14.730Z,62.87
2019-03-31T21:40:18.197Z,63.33
2019-03-31T21:45:21.759Z,62.58
2019-03-31T21:50:25.222Z,62.67
2019-03-31T21:55:28.682Z,62.23
2019-03-31T22:00:33.758Z,63.08
2019-03-31T22:05:37.174Z,64.56
2019-03-31T22:10:40.622Z,64.14
2019-03-31T22:15:44.062Z,62.31
2019-03-31T22:20:47.637Z,62.63
2019-03-31T22:25:51.089Z,64.78
2019-03-31T22:30:54.608Z,65.92
2019-03-31T22:41:24.584Z,63.78
2019-03-31T22:46:28.013Z,64.14
2019-03-31T22:51:31.505Z,63.65
2019-03-31T22:56:34.918Z,63.93
2019-03-31T23:01:38.338Z,63.27
2019-03-31T23:06:41.735Z,63.80
2019-03-31T23:11:45.157Z,64.29
2019-03-31T23:16:48.579Z,63.82
2019-03-31T23:21:52.007Z,64.01
2019-03-31T23:26:55.404Z,64.52
2019-03-31T23:31:58.845Z,65.64
2019-03-31T23:37:02.309Z,66.63
2019-03-31T23:42:05.712Z,66.07
2019-03-31T23:47:09.155Z,67.49
2019-03-31T23:52:12.567Z,65.74
2019-03-31T23:57:15.968Z,64.95
